SOHO CELIAS Proton Monitor
Solar Wind Parameters for Carrington Rotation 1918 (hour averages)


Listed Parameters:

Measurement time (Year, Day of Year, Hour, Minute, Second)
Proton speed [km/sec]
Proton density [protons per cubic centimeter]
Most probable proton thermal speed [km/sec]
Arrival direction [degrees from north-south, with + meaning FROM the south).
(SPEED=-1 means NOT AVAILABLE)

SOHO spacecraft coordinates: based on SOHO PRE orbit files
GSE X, Y, Z [Earth Radii] 1 RE == 6378 km
Heliocentric Range [106 km],
Heliographic Latitude and Longitude [deg].

FORMAT=(1X,I2,1X,I3,1X,I2,1X,I2,1X,I2,F7.1,3F7.2,3X,3F7.1,F7.1,F7.2,F8.2)



                              CELIAS/MTOF/PM DATA                      SOHO ORBIT DATA              
 InSitu_Start__Time       [km/s]  [cm-3] [km/s]  [deg]      [Re]   [Re]   [Re]  [Mkm]  [deg]  [deg]
 YY MON DY DOY:HH:MM:SS   SPEED     Np     Vth    N/S      GSE_X  GSE_Y  GSE_Z  RANGE  HGLAT  HGLONG
 97 JAN  5   5:15:00:00     336   17.4      24    3.0      237.5  -86.7  -13.2  145.6   -3.6   359.8
 97 JAN  5   5:16:00:00     330   18.2      23    2.7      237.5  -86.7  -13.2  145.6   -3.6   359.2
 97 JAN  5   5:17:00:00     331   13.3      23    0.3      237.4  -86.8  -13.2  145.6   -3.6   358.7
 97 JAN  5   5:18:00:00     336   14.4      24    0.1      237.4  -86.9  -13.1  145.6   -3.7   358.1
 97 JAN  5   5:19:00:00     329   11.9      23    0.3      237.3  -87.0  -13.1  145.6   -3.7   357.6
 97 JAN  5   5:20:00:00     329   12.8      23    0.4      237.3  -87.0  -13.1  145.6   -3.7   357.0
 97 JAN  5   5:21:00:00     328   12.8      22    0.2      237.2  -87.1  -13.1  145.6   -3.7   356.5
 97 JAN  5   5:22:00:00     334   10.0      24   -0.2      237.2  -87.2  -13.0  145.6   -3.7   355.9
 97 JAN  5   5:23:00:00     326   11.1      22   -0.2      237.1  -87.3  -13.0  145.6   -3.7   355.4
 97 JAN  6   6:00:00:00     328   11.4      23   -0.1      237.1  -87.3  -13.0  145.6   -3.7   354.8
 97 JAN  6   6:01:00:00     329   11.0      23   -0.2      237.0  -87.4  -13.0  145.6   -3.7   354.3
 97 JAN  6   6:02:00:00     329   10.4      22   -0.6      237.0  -87.5  -13.0  145.6   -3.7   353.7
 97 JAN  6   6:03:00:00     334   12.2      25   -0.2      236.9  -87.6  -12.9  145.6   -3.7   353.2
 97 JAN  6   6:04:00:00     325   11.3      22   -0.5      236.9  -87.6  -12.9  145.6   -3.7   352.6
 97 JAN  6   6:05:00:00     329   11.7      24   -0.6      236.8  -87.7  -12.9  145.6   -3.7   352.1
 97 JAN  6   6:06:00:00     340   11.4      27   -0.6      236.8  -87.8  -12.9  145.6   -3.7   351.5
 97 JAN  6   6:07:00:00     338   12.9      26    0.4      236.7  -87.9  -12.8  145.6   -3.7   351.0
 97 JAN  6   6:08:00:00     347   11.1      27   -0.6      236.7  -87.9  -12.8  145.6   -3.7   350.4
 97 JAN  6   6:09:00:00     346   13.0      29   -0.4      236.6  -88.0  -12.8  145.6   -3.7   349.9
 97 JAN  6   6:10:00:00     359   10.3      32    0.3      236.6  -88.1  -12.8  145.6   -3.7   349.3
 97 JAN  6   6:11:00:00     355   10.0      30   -0.1      236.5  -88.2  -12.7  145.6   -3.7   348.8
 97 JAN  6   6:12:00:00     356    9.8      29   -0.9      236.5  -88.2  -12.7  145.6   -3.7   348.2
 97 JAN  6   6:13:00:00     360   10.0      29   -1.8      236.4  -88.3  -12.7  145.6   -3.7   347.7
 97 JAN  6   6:14:00:00     355    8.2      24   -1.9      236.4  -88.4  -12.7  145.6   -3.7   347.1
 97 JAN  6   6:15:00:00     351    7.1      23   -1.8      236.3  -88.4  -12.7  145.6   -3.7   346.6
 97 JAN  6   6:16:00:00     350    6.9      26   -2.3      236.3  -88.5  -12.6  145.6   -3.8   346.0
 97 JAN  6   6:17:00:00     350    8.7      26   -2.6      236.3  -88.6  -12.6  145.6   -3.8   345.5
 97 JAN  6   6:18:00:00     351   10.6      25   -3.3      236.2  -88.7  -12.6  145.6   -3.8   344.9
 97 JAN  6   6:19:00:00     358   14.1      25   -4.3      236.2  -88.7  -12.6  145.6   -3.8   344.4
 97 JAN  6   6:20:00:00     366   15.7      24   -4.8      236.1  -88.8  -12.5  145.6   -3.8   343.8
 97 JAN  6   6:21:00:00     350   18.7      19   -4.0      236.1  -88.9  -12.5  145.6   -3.8   343.3
 97 JAN  6   6:22:00:00     351   21.0      20   -4.1      236.0  -88.9  -12.5  145.6   -3.8   342.7
 97 JAN  6   6:23:00:00     354   27.3      20   -4.8      236.0  -89.0  -12.5  145.6   -3.8   342.2
 97 JAN  7   7:00:00:00     353   30.7      20   -6.4      235.9  -89.1  -12.5  145.6   -3.8   341.6
 97 JAN  7   7:01:00:00     394   18.5      32   -6.5      235.9  -89.1  -12.4  145.6   -3.8   341.1
 97 JAN  7   7:02:00:00     390   18.2      30   -6.3      235.8  -89.2  -12.4  145.6   -3.8   340.5
 97 JAN  7   7:03:00:00     374   26.9      24   -5.5      235.8  -89.3  -12.4  145.6   -3.8   340.0
 97 JAN  7   7:04:00:00     366   29.5      23   -5.8      235.7  -89.4  -12.4  145.6   -3.8   339.4
 97 JAN  7   7:05:00:00     379   16.6      26   -3.6      235.7  -89.4  -12.3  145.6   -3.8   338.9
 97 JAN  7   7:06:00:00     379    9.7      33   -2.2      235.6  -89.5  -12.3  145.6   -3.8   338.4
 97 JAN  7   7:07:00:00     400    5.0      44   -1.5      235.6  -89.6  -12.3  145.6   -3.8   337.8
 97 JAN  7   7:08:00:00     402    7.7      46   -2.6      235.5  -89.6  -12.3  145.6   -3.8   337.3
 97 JAN  7   7:09:00:00     390    9.3      42   -3.0      235.5  -89.7  -12.3  145.6   -3.8   336.7
 97 JAN  7   7:10:00:00     399    9.0      43   -2.4      235.4  -89.8  -12.2  145.6   -3.8   336.2
 97 JAN  7   7:11:00:00     408    8.8      43   -1.9      235.4  -89.8  -12.2  145.6   -3.8   335.6
 97 JAN  7   7:12:00:00     422    7.9      45   -1.1      235.3  -89.9  -12.2  145.6   -3.8   335.1
 97 JAN  7   7:13:00:00     430    6.4      40   -1.6      235.3  -90.0  -12.2  145.6   -3.8   334.5
 97 JAN  7   7:14:00:00     431    7.0      40   -0.7      235.2  -90.0  -12.1  145.6   -3.9   334.0
 97 JAN  7   7:15:00:00     429    7.1      39   -0.5      235.2  -90.1  -12.1  145.6   -3.9   333.4
 97 JAN  7   7:16:00:00     424    7.1      38   -0.3      235.1  -90.2  -12.1  145.6   -3.9   332.9
 97 JAN  7   7:17:00:00     419    6.6      38    0.1      235.0  -90.2  -12.1  145.6   -3.9   332.3
 97 JAN  7   7:18:00:00     414    6.0      37   -0.7      235.0  -90.3  -12.0  145.6   -3.9   331.8
 97 JAN  7   7:19:00:00     411    6.5      36   -1.0      234.9  -90.4  -12.0  145.6   -3.9   331.2
 97 JAN  7   7:20:00:00     408    6.6      35   -1.1      234.9  -90.4  -12.0  145.6   -3.9   330.7
 97 JAN  7   7:21:00:00     418    6.4      39   -1.1      234.8  -90.5  -12.0  145.6   -3.9   330.1
 97 JAN  7   7:22:00:00     434    7.4      40   -0.2      234.8  -90.6  -12.0  145.6   -3.9   329.6
 97 JAN  7   7:23:00:00     434    7.5      40   -1.4      234.7  -90.6  -11.9  145.6   -3.9   329.0
 97 JAN  8   8:00:00:00     439    8.6      40   -1.1      234.7  -90.7  -11.9  145.6   -3.9   328.5
 97 JAN  8   8:01:00:00     435    7.6      39   -1.2      234.6  -90.7  -11.9  145.6   -3.9   327.9
 97 JAN  8   8:02:00:00     441    7.2      42   -0.4      234.6  -90.8  -11.9  145.6   -3.9   327.4
 97 JAN  8   8:03:00:00     446    6.4      43   -0.6      234.5  -90.9  -11.8  145.6   -3.9   326.8
 97 JAN  8   8:04:00:00     444    6.2      42   -0.5      234.5  -90.9  -11.8  145.6   -3.9   326.3
 97 JAN  8   8:05:00:00     443    5.7      42    0.2      234.4  -91.0  -11.8  145.6   -3.9   325.7
 97 JAN  8   8:06:00:00     441    5.0      42    0.5      234.4  -91.1  -11.8  145.6   -3.9   325.2
 97 JAN  8   8:07:00:00     447    4.6      42    0.6      234.3  -91.1  -11.7  145.6   -3.9   324.6
 97 JAN  8   8:08:00:00     439    4.1      42    0.5      234.3  -91.2  -11.7  145.6   -3.9   324.1
 97 JAN  8   8:09:00:00     427    3.9      40   -0.1      234.2  -91.3  -11.7  145.6   -3.9   323.5
 97 JAN  8   8:10:00:00     410    5.1      35    0.0      234.2  -91.3  -11.7  145.6   -3.9   323.0
 97 JAN  8   8:11:00:00     399    5.4      30    0.1      234.1  -91.4  -11.7  145.6   -3.9   322.4
 97 JAN  8   8:12:00:00     395    6.0      29   -1.1      234.1  -91.4  -11.6  145.6   -4.0   321.9
 97 JAN  8   8:13:00:00     394    6.1      29   -1.5      234.0  -91.5  -11.6  145.6   -4.0   321.3
 97 JAN  8   8:14:00:00     395    7.4      29   -2.4      234.0  -91.6  -11.6  145.6   -4.0   320.8
 97 JAN  8   8:15:00:00     406    8.3      31   -2.4      233.9  -91.6  -11.6  145.6   -4.0   320.2
 97 JAN  8   8:16:00:00     407   12.2      31   -3.7      233.9  -91.7  -11.5  145.6   -4.0   319.7
 97 JAN  8   8:17:00:00     412    9.7      32   -2.9      233.8  -91.7  -11.5  145.6   -4.0   319.1
 97 JAN  8   8:18:00:00     414    8.4      34   -2.3      233.8  -91.8  -11.5  145.6   -4.0   318.6
 97 JAN  8   8:19:00:00     441    7.4      37   -0.5      233.7  -91.9  -11.5  145.6   -4.0   318.0
 97 JAN  8   8:20:00:00     424    8.6      37   -0.2      233.6  -91.9  -11.4  145.6   -4.0   317.5
 97 JAN  8   8:21:00:00     429    8.5      37   -0.4      233.6  -92.0  -11.4  145.6   -4.0   316.9
 97 JAN  8   8:22:00:00     430    7.4      37   -0.3      233.5  -92.0  -11.4  145.6   -4.0   316.4
 97 JAN  8   8:23:00:00     433    8.7      38    0.3      233.5  -92.1  -11.4  145.6   -4.0   315.8
 97 JAN  9   9:00:00:00     437    8.2      39    0.3      233.4  -92.2  -11.3  145.6   -4.0   315.3
 97 JAN  9   9:01:00:00     441    6.0      39    0.5      233.4  -92.2  -11.3  145.6   -4.0   314.7
 97 JAN  9   9:02:00:00     439    7.1      39    0.4      233.3  -92.3  -11.3  145.6   -4.0   314.2
 97 JAN  9   9:03:00:00     431    6.1      38   -0.2      233.3  -92.3  -11.3  145.6   -4.0   313.6
 97 JAN  9   9:04:00:00     428    4.9      38   -0.9      233.2  -92.4  -11.3  145.6   -4.0   313.1
 97 JAN  9   9:05:00:00     418    4.9      37   -1.4      233.2  -92.5  -11.2  145.6   -4.0   312.5
 97 JAN  9   9:06:00:00     408    5.6      35   -0.9      233.1  -92.5  -11.2  145.6   -4.0   312.0
 97 JAN  9   9:07:00:00     404    6.5      34   -0.9      233.1  -92.6  -11.2  145.6   -4.0   311.4
 97 JAN  9   9:08:00:00     400    6.4      33   -0.2      233.0  -92.6  -11.2  145.6   -4.0   310.9
 97 JAN  9   9:09:00:00     392    5.8      32    0.4      232.9  -92.7  -11.1  145.6   -4.0   310.3
 97 JAN  9   9:10:00:00     383    6.3      30    0.0      232.9  -92.7  -11.1  145.6   -4.0   309.8
 97 JAN  9   9:11:00:00     375    6.1      28    0.2      232.8  -92.8  -11.1  145.6   -4.1   309.2
 97 JAN  9   9:12:00:00     373    5.4      29    0.3      232.8  -92.9  -11.1  145.6   -4.1   308.7
 97 JAN  9   9:13:00:00     367    5.9      29    0.3      232.7  -92.9  -11.0  145.6   -4.1   308.1
 97 JAN  9   9:14:00:00     372    6.0      27    0.2      232.7  -93.0  -11.0  145.6   -4.1   307.6
 97 JAN  9   9:15:00:00     375    7.2      27   -0.2      232.6  -93.0  -11.0  145.6   -4.1   307.0
 97 JAN  9   9:16:00:00     379    7.8      25    0.6      232.6  -93.1  -11.0  145.6   -4.1   306.5
 97 JAN  9   9:17:00:00     378    8.2      25    0.7      232.5  -93.1  -10.9  145.6   -4.1   305.9
 97 JAN  9   9:18:00:00     378    8.2      25    0.9      232.5  -93.2  -10.9  145.6   -4.1   305.4
 97 JAN  9   9:19:00:00     378    7.3      26    0.6      232.4  -93.3  -10.9  145.6   -4.1   304.8
 97 JAN  9   9:20:00:00     376    8.0      25    1.1      232.3  -93.3  -10.9  145.6   -4.1   304.3
 97 JAN  9   9:21:00:00     374    8.5      23    0.9      232.3  -93.4  -10.9  145.6   -4.1   303.7
 97 JAN  9   9:22:00:00     372    8.4      23    0.9      232.2  -93.4  -10.8  145.6   -4.1   303.2
 97 JAN  9   9:23:00:00     372    8.8      23    1.3      232.2  -93.5  -10.8  145.6   -4.1   302.6
 97 JAN 10  10:00:00:00     409   11.7      31   -0.4      232.1  -93.5  -10.8  145.6   -4.1   302.1
 97 JAN 10  10:01:00:00     434   11.0      37   -1.1      232.1  -93.6  -10.8  145.6   -4.1   301.5
 97 JAN 10  10:02:00:00     443   13.3      39    0.4      232.0  -93.6  -10.7  145.6   -4.1   301.0
 97 JAN 10  10:03:00:00     453   16.0      41    3.9      232.0  -93.7  -10.7  145.6   -4.1   300.4
 97 JAN 10  10:04:00:00     470    7.3      37    2.7      231.9  -93.7  -10.7  145.6   -4.1   299.9
 97 JAN 10  10:05:00:00     480    3.0      34    1.0      231.8  -93.8  -10.7  145.6   -4.1   299.3
 97 JAN 10  10:06:00:00     450    7.4      41   -1.2      231.8  -93.9  -10.6  145.6   -4.1   298.8
 97 JAN 10  10:07:00:00     454    6.9      42   -1.3      231.7  -93.9  -10.6  145.6   -4.1   298.2
 97 JAN 10  10:08:00:00     447    5.4      43   -1.7      231.7  -94.0  -10.6  145.6   -4.1   297.7
 97 JAN 10  10:09:00:00     449    4.8      40   -2.0      231.6  -94.0  -10.6  145.6   -4.1   297.1
 97 JAN 10  10:10:00:00     448    4.0      39   -1.0      231.6  -94.1  -10.5  145.6   -4.2   296.6
 97 JAN 10  10:11:00:00     433    5.1      39   -1.6      231.5  -94.1  -10.5  145.6   -4.2   296.0
 97 JAN 10  10:12:00:00     445    5.2      39   -2.1      231.5  -94.2  -10.5  145.6   -4.2   295.5
 97 JAN 10  10:13:00:00     450    5.8      37   -2.3      231.4  -94.2  -10.5  145.6   -4.2   294.9
 97 JAN 10  10:14:00:00     451    5.3      37   -2.4      231.3  -94.3  -10.4  145.6   -4.2   294.4
 97 JAN 10  10:15:00:00     440    6.0      36   -1.8      231.3  -94.3  -10.4  145.6   -4.2   293.8
 97 JAN 10  10:16:00:00     438    5.8      35   -1.5      231.2  -94.4  -10.4  145.6   -4.2   293.3
 97 JAN 10  10:17:00:00     421    4.8      33   -1.2      231.2  -94.4  -10.4  145.6   -4.2   292.7
 97 JAN 10  10:18:00:00     385    5.9      25   -1.7      231.1  -94.5  -10.4  145.6   -4.2   292.2
 97 JAN 10  10:19:00:00     381    6.5      24   -1.9      231.1  -94.5  -10.3  145.6   -4.2   291.6
 97 JAN 10  10:20:00:00     386    6.8      26   -1.5      231.0  -94.6  -10.3  145.6   -4.2   291.1
 97 JAN 10  10:21:00:00     391    8.3      26   -1.8      231.0  -94.6  -10.3  145.6   -4.2   290.5
 97 JAN 10  10:22:00:00     389    9.7      26   -2.0      230.9  -94.7  -10.3  145.6   -4.2   290.0
 97 JAN 10  10:23:00:00     401   13.5      30   -1.6      230.8  -94.7  -10.2  145.7   -4.2   289.4
 97 JAN 11  11:00:00:00     428   18.0      44   -1.0      230.8  -94.8  -10.2  145.7   -4.2   288.9
 97 JAN 11  11:01:00:00     426   19.3      43   -1.4      230.7  -94.8  -10.2  145.7   -4.2   288.3
 97 JAN 11  11:02:00:00     426   24.1      36    0.5      230.7  -94.9  -10.2  145.7   -4.2   287.8
 97 JAN 11  11:03:00:00     439   19.6      35    1.7      230.6  -94.9  -10.1  145.7   -4.2   287.2
 97 JAN 11  11:04:00:00     480   13.1      50    2.6      230.6  -95.0  -10.1  145.7   -4.2   286.7
 97 JAN 11  11:05:00:00     484   16.2      56    1.7      230.5  -95.0  -10.1  145.7   -4.2   286.1
 97 JAN 11  11:06:00:00     493   14.0      56    0.6      230.4  -95.1  -10.1  145.7   -4.2   285.6
 97 JAN 11  11:07:00:00     544    8.8      70    0.8      230.4  -95.1  -10.0  145.7   -4.2   285.0
 97 JAN 11  11:08:00:00     557    7.1      57    0.7      230.3  -95.2  -10.0  145.7   -4.2   284.5
 97 JAN 11  11:09:00:00     555    7.1      56    0.9      230.3  -95.2  -10.0  145.7   -4.3   283.9
 97 JAN 11  11:10:00:00     560    7.5      60    1.9      230.2  -95.3  -10.0  145.7   -4.3   283.4
 97 JAN 11  11:11:00:00     507    7.3      56    1.3      230.2  -95.3   -9.9  145.7   -4.3   282.8
 97 JAN 11  11:12:00:00     495    6.1      49    1.3      230.1  -95.4   -9.9  145.7   -4.3   282.3
 97 JAN 11  11:13:00:00     494    5.5      41    1.1      230.0  -95.4   -9.9  145.7   -4.3   281.7
 97 JAN 11  11:14:00:00     489    6.1      39    0.9      230.0  -95.5   -9.9  145.7   -4.3   281.2
 97 JAN 11  11:15:00:00     482    5.7      36    0.7      229.9  -95.5   -9.8  145.7   -4.3   280.6
 97 JAN 11  11:16:00:00     484    4.8      39    1.1      229.9  -95.6   -9.8  145.7   -4.3   280.1
 97 JAN 11  11:17:00:00     484    4.9      37    1.8      229.8  -95.6   -9.8  145.7   -4.3   279.5
 97 JAN 11  11:18:00:00     487    5.5      37    1.9      229.7  -95.7   -9.8  145.7   -4.3   279.0
 97 JAN 11  11:19:00:00     490    5.7      38    1.1      229.7  -95.7   -9.7  145.7   -4.3   278.4
 97 JAN 11  11:20:00:00     490    4.9      39    0.9      229.6  -95.8   -9.7  145.7   -4.3   277.9
 97 JAN 11  11:21:00:00     507    5.0      43    1.8      229.6  -95.8   -9.7  145.7   -4.3   277.3
 97 JAN 11  11:22:00:00     501    5.3      41    1.4      229.5  -95.8   -9.7  145.7   -4.3   276.8
 97 JAN 11  11:23:00:00     551    6.9      48    3.2      229.5  -95.9   -9.6  145.7   -4.3   276.2
 97 JAN 12  12:00:00:00     535    6.4      47    3.0      229.4  -95.9   -9.6  145.7   -4.3   275.7
 97 JAN 12  12:01:00:00     520    5.6      47    1.7      229.3  -96.0   -9.6  145.7   -4.3   275.1
 97 JAN 12  12:02:00:00     530    5.9      49    1.3      229.3  -96.0   -9.6  145.7   -4.3   274.6
 97 JAN 12  12:03:00:00     527    7.4      47    3.2      229.2  -96.1   -9.6  145.7   -4.3   274.0
 97 JAN 12  12:04:00:00     526    6.7      48    1.6      229.2  -96.1   -9.5  145.7   -4.3   273.5
 97 JAN 12  12:05:00:00     528    7.7      47    1.9      229.1  -96.2   -9.5  145.7   -4.3   272.9
 97 JAN 12  12:06:00:00     533    9.0      47    2.5      229.0  -96.2   -9.5  145.7   -4.3   272.4
 97 JAN 12  12:07:00:00     535    8.9      48    2.5      229.0  -96.3   -9.5  145.7   -4.3   271.8
 97 JAN 12  12:08:00:00     528    8.3      48    1.9      228.9  -96.3   -9.4  145.7   -4.4   271.3
 97 JAN 12  12:09:00:00     537    7.6      52    1.6      228.9  -96.4   -9.4  145.7   -4.4   270.7
 97 JAN 12  12:10:00:00     558    8.5      51    3.2      228.8  -96.4   -9.4  145.7   -4.4   270.2
 97 JAN 12  12:11:00:00     546    7.1      51    2.2      228.8  -96.4   -9.4  145.7   -4.4   269.6
 97 JAN 12  12:12:00:00     548    5.6      51    1.4      228.7  -96.5   -9.3  145.7   -4.4   269.1
 97 JAN 12  12:13:00:00     540    5.4      50    1.0      228.6  -96.5   -9.3  145.7   -4.4   268.5
 97 JAN 12  12:14:00:00     551    5.5      50    1.6      228.6  -96.6   -9.3  145.7   -4.4   268.0
 97 JAN 12  12:15:00:00     566    4.5      54    1.3      228.5  -96.6   -9.3  145.7   -4.4   267.4
 97 JAN 12  12:16:00:00     564    4.1      53    1.5      228.5  -96.7   -9.2  145.7   -4.4   266.9
 97 JAN 12  12:17:00:00     561    4.7      52    2.2      228.4  -96.7   -9.2  145.7   -4.4   266.3
 97 JAN 12  12:18:00:00     565    4.7      52    1.9      228.3  -96.7   -9.2  145.7   -4.4   265.8
 97 JAN 12  12:19:00:00     561    4.2      50    1.4      228.3  -96.8   -9.2  145.7   -4.4   265.2
 97 JAN 12  12:20:00:00     543    3.7      50    0.1      228.2  -96.8   -9.1  145.7   -4.4   264.7
 97 JAN 12  12:21:00:00     549    3.6      48    0.9      228.2  -96.9   -9.1  145.7   -4.4   264.1
 97 JAN 12  12:22:00:00     523    3.8      48   -0.4      228.1  -96.9   -9.1  145.7   -4.4   263.6
 97 JAN 12  12:23:00:00     514    4.2      46    0.4      228.0  -97.0   -9.1  145.7   -4.4   263.0
 97 JAN 13  13:00:00:00     518    4.6      46    0.3      228.0  -97.0   -9.0  145.7   -4.4   262.5
 97 JAN 13  13:01:00:00     509    4.6      44    0.5      227.9  -97.0   -9.0  145.7   -4.4   261.9
 97 JAN 13  13:02:00:00     534    3.6      48   -0.3      227.9  -97.1   -9.0  145.7   -4.4   261.4
 97 JAN 13  13:03:00:00     531    3.9      48   -0.4      227.8  -97.1   -9.0  145.7   -4.4   260.8
 97 JAN 13  13:04:00:00     531    3.8      48   -0.5      227.7  -97.2   -8.9  145.7   -4.4   260.3
 97 JAN 13  13:05:00:00     527    3.6      48   -0.5      227.7  -97.2   -8.9  145.7   -4.4   259.7
 97 JAN 13  13:06:00:00     518    3.6      47   -0.3      227.6  -97.3   -8.9  145.7   -4.4   259.2
 97 JAN 13  13:07:00:00     505    3.6      44   -0.2      227.6  -97.3   -8.9  145.7   -4.4   258.6
 97 JAN 13  13:08:00:00     490    3.4      40   -0.3      227.5  -97.3   -8.8  145.7   -4.5   258.1
 97 JAN 13  13:09:00:00     486    3.2      38    0.0      227.5  -97.4   -8.8  145.7   -4.5   257.5
 97 JAN 13  13:10:00:00     486    3.1      39    0.0      227.4  -97.4   -8.8  145.7   -4.5   257.0
 97 JAN 13  13:11:00:00     497    3.6      41    0.1      227.3  -97.5   -8.8  145.7   -4.5   256.4
 97 JAN 13  13:12:00:00     494    3.8      41    0.0      227.3  -97.5   -8.7  145.7   -4.5   255.9
 97 JAN 13  13:13:00:00     482    3.7      39    0.1      227.2  -97.5   -8.7  145.7   -4.5   255.3
 97 JAN 13  13:14:00:00     477    3.6      37    0.2      227.2  -97.6   -8.7  145.7   -4.5   254.8
 97 JAN 13  13:15:00:00     472    3.7      33    0.1      227.1  -97.6   -8.7  145.7   -4.5   254.2
 97 JAN 13  13:16:00:00     472    3.9      32   -0.3      227.0  -97.7   -8.6  145.7   -4.5   253.7
 97 JAN 13  13:17:00:00     471    3.9      32   -0.4      227.0  -97.7   -8.6  145.7   -4.5   253.1
 97 JAN 13  13:18:00:00     470    3.7      32   -0.4      226.9  -97.7   -8.6  145.7   -4.5   252.6
 97 JAN 13  13:19:00:00     468    3.2      34   -0.4      226.9  -97.8   -8.6  145.7   -4.5   252.0
 97 JAN 13  13:20:00:00     468    3.1      35   -0.4      226.8  -97.8   -8.5  145.7   -4.5   251.5
 97 JAN 13  13:21:00:00     462    3.2      37   -0.3      226.7  -97.9   -8.5  145.7   -4.5   250.9
 97 JAN 13  13:22:00:00     459    3.1      37   -0.3      226.7  -97.9   -8.5  145.7   -4.5   250.4
 97 JAN 13  13:23:00:00     457    2.9      37   -0.6      226.6  -97.9   -8.5  145.7   -4.5   249.8
 97 JAN 14  14:00:00:00     458    3.0      38   -0.2      226.6  -98.0   -8.4  145.7   -4.5   249.3
 97 JAN 14  14:01:00:00     458    3.6      34   -0.5      226.5  -98.0   -8.4  145.7   -4.5   248.7
 97 JAN 14  14:02:00:00     452    3.6      35   -1.1      226.4  -98.0   -8.4  145.7   -4.5   248.2
 97 JAN 14  14:03:00:00     457    3.6      36   -0.5      226.4  -98.1   -8.4  145.7   -4.5   247.6
 97 JAN 14  14:04:00:00     449    3.1      35   -1.3      226.3  -98.1   -8.3  145.7   -4.5   247.1
 97 JAN 14  14:05:00:00     439    3.0      36   -1.3      226.3  -98.2   -8.3  145.7   -4.5   246.5
 97 JAN 14  14:06:00:00     433    3.3      34   -1.1      226.2  -98.2   -8.3  145.7   -4.5   246.0
 97 JAN 14  14:07:00:00     428    3.9      35    0.2      226.1  -98.2   -8.3  145.7   -4.5   245.4
 97 JAN 14  14:08:00:00     412    3.8      33    0.1      226.1  -98.3   -8.2  145.7   -4.6   244.9
 97 JAN 14  14:09:00:00     403    4.4      30    0.3      226.0  -98.3   -8.2  145.7   -4.6   244.3
 97 JAN 14  14:10:00:00     391    4.9      27    0.8      226.0  -98.3   -8.2  145.7   -4.6   243.8
 97 JAN 14  14:11:00:00     391    5.0      27    0.7      225.9  -98.4   -8.2  145.7   -4.6   243.2
 97 JAN 14  14:12:00:00     387    5.7      26    0.2      225.8  -98.4   -8.1  145.7   -4.6   242.7
 97 JAN 14  14:13:00:00     385    5.6      26   -0.2      225.8  -98.5   -8.1  145.7   -4.6   242.1
 97 JAN 14  14:14:00:00     388    5.8      27    0.2      225.7  -98.5   -8.1  145.7   -4.6   241.6
 97 JAN 14  14:15:00:00     388    6.2      27    0.5      225.7  -98.5   -8.1  145.7   -4.6   241.0
 97 JAN 14  14:16:00:00     385    5.5      27   -0.4      225.6  -98.6   -8.0  145.7   -4.6   240.5
 97 JAN 14  14:17:00:00     384    5.5      26    0.1      225.5  -98.6   -8.0  145.7   -4.6   239.9
 97 JAN 14  14:18:00:00     382    5.8      26    0.6      225.5  -98.6   -8.0  145.7   -4.6   239.4
 97 JAN 14  14:19:00:00     382    6.7      27    0.9      225.4  -98.7   -8.0  145.7   -4.6   238.8
 97 JAN 14  14:20:00:00     383    7.1      26    1.3      225.4  -98.7   -7.9  145.7   -4.6   238.3
 97 JAN 14  14:21:00:00     382    7.9      27    1.2      225.3  -98.7   -7.9  145.7   -4.6   237.7
 97 JAN 14  14:22:00:00     380    7.4      27    0.0      225.2  -98.8   -7.9  145.7   -4.6   237.2
 97 JAN 14  14:23:00:00     382    6.1      26   -0.1      225.2  -98.8   -7.8  145.7   -4.6   236.6
 97 JAN 15  15:00:00:00     381    5.2      25   -0.3      225.1  -98.8   -7.8  145.7   -4.6   236.1
 97 JAN 15  15:01:00:00     381    5.9      25    0.4      225.1  -98.9   -7.8  145.7   -4.6   235.5
 97 JAN 15  15:02:00:00     379    6.2      24    0.7      225.0  -98.9   -7.8  145.7   -4.6   235.0
 97 JAN 15  15:03:00:00     366    5.9      22    0.0      224.9  -98.9   -7.7  145.7   -4.6   234.4
 97 JAN 15  15:04:00:00     373    6.5      23    0.8      224.9  -99.0   -7.7  145.7   -4.6   233.9
 97 JAN 15  15:05:00:00     369    4.6      24   -1.0      224.8  -99.0   -7.7  145.7   -4.6   233.3
 97 JAN 15  15:06:00:00     349    9.7      24    2.6      224.8  -99.0   -7.7  145.7   -4.6   232.8
 97 JAN 15  15:07:00:00     330   15.6      21    5.2      224.7  -99.1   -7.6  145.7   -4.6   232.2
 97 JAN 15  15:08:00:00     336   11.4      22    4.0      224.6  -99.1   -7.6  145.7   -4.7   231.7
 97 JAN 15  15:09:00:00     343    8.1      23    2.0      224.6  -99.2   -7.6  145.7   -4.7   231.1
 97 JAN 15  15:10:00:00     343   10.2      25    1.8      224.5  -99.2   -7.6  145.7   -4.7   230.6
 97 JAN 15  15:11:00:00     340   12.3      26    1.1      224.5  -99.2   -7.5  145.7   -4.7   230.0
 97 JAN 15  15:12:00:00     340    8.8      26    1.4      224.4  -99.2   -7.5  145.7   -4.7   229.5
 97 JAN 15  15:13:00:00     335    8.4      24    0.8      224.3  -99.3   -7.5  145.7   -4.7   228.9
 97 JAN 15  15:14:00:00     326   12.4      22    0.8      224.3  -99.3   -7.5  145.7   -4.7   228.4
 97 JAN 15  15:15:00:00     328   11.8      22    0.3      224.2  -99.3   -7.4  145.7   -4.7   227.8
 97 JAN 15  15:16:00:00     330   10.1      22    0.0      224.2  -99.4   -7.4  145.7   -4.7   227.3
 97 JAN 15  15:17:00:00     327   10.5      21    1.4      224.1  -99.4   -7.4  145.7   -4.7   226.7
 97 JAN 15  15:18:00:00     325   11.1      21    2.4      224.0  -99.4   -7.4  145.7   -4.7   226.2
 97 JAN 15  15:19:00:00     324   17.1      20    4.0      224.0  -99.5   -7.3  145.7   -4.7   225.6
 97 JAN 15  15:20:00:00     325   17.4      21    3.6      223.9  -99.5   -7.3  145.7   -4.7   225.1
 97 JAN 15  15:21:00:00     326    8.9      22    0.7      223.9  -99.5   -7.3  145.7   -4.7   224.5
 97 JAN 15  15:22:00:00     323   10.4      22    1.2      223.8  -99.6   -7.3  145.7   -4.7   224.0
 97 JAN 15  15:23:00:00     318   12.3      22    0.8      223.7  -99.6   -7.2  145.7   -4.7   223.4
 97 JAN 16  16:00:00:00     328   12.3      23    1.6      223.7  -99.6   -7.2  145.7   -4.7   222.9
 97 JAN 16  16:01:00:00     323   14.1      21    3.3      223.6  -99.7   -7.2  145.7   -4.7   222.3
 97 JAN 16  16:02:00:00     310   13.3      18    3.2      223.6  -99.7   -7.2  145.7   -4.7   221.8
 97 JAN 16  16:03:00:00     308    9.8      19    1.4      223.5  -99.7   -7.1  145.7   -4.7   221.2
 97 JAN 16  16:04:00:00     316    9.2      19   -0.3      223.4  -99.8   -7.1  145.7   -4.7   220.7
 97 JAN 16  16:05:00:00     321    6.3      20    0.0      223.4  -99.8   -7.1  145.7   -4.7   220.1
 97 JAN 16  16:06:00:00     337    3.7      22   -1.8      223.3  -99.8   -7.0  145.7   -4.7   219.6
 97 JAN 16  16:07:00:00     330    3.6      22   -1.3      223.3  -99.8   -7.0  145.7   -4.7   219.0
 97 JAN 16  16:08:00:00     314    5.6      20   -1.7      223.2  -99.9   -7.0  145.7   -4.7   218.5
 97 JAN 16  16:09:00:00     306    7.5      19   -0.9      223.1  -99.9   -7.0  145.7   -4.8   217.9
 97 JAN 16  16:10:00:00     311    8.7      19   -1.7      223.1  -99.9   -6.9  145.7   -4.8   217.4
 97 JAN 16  16:11:00:00     324    9.3      21   -2.4      223.0 -100.0   -6.9  145.7   -4.8   216.8
 97 JAN 16  16:12:00:00     324    8.6      21   -2.1      223.0 -100.0   -6.9  145.7   -4.8   216.3
 97 JAN 16  16:13:00:00     324    8.1      21   -1.5      222.9 -100.0   -6.9  145.7   -4.8   215.7
 97 JAN 16  16:14:00:00     322    8.7      21   -0.9      222.8 -100.0   -6.8  145.7   -4.8   215.2
 97 JAN 16  16:15:00:00     321    8.5      21   -0.4      222.8 -100.1   -6.8  145.7   -4.8   214.6
 97 JAN 16  16:16:00:00     317    8.2      20    0.1      222.7 -100.1   -6.8  145.7   -4.8   214.1
 97 JAN 16  16:17:00:00     315    7.0      20   -0.2      222.7 -100.1   -6.8  145.7   -4.8   213.5
 97 JAN 16  16:18:00:00     312    7.5      19   -0.8      222.6 -100.2   -6.7  145.7   -4.8   213.0
 97 JAN 16  16:19:00:00     307    9.2      19   -0.4      222.5 -100.2   -6.7  145.7   -4.8   212.4
 97 JAN 16  16:20:00:00     305    8.4      19   -0.7      222.5 -100.2   -6.7  145.7   -4.8   211.9
 97 JAN 16  16:21:00:00     311    9.1      18   -2.7      222.4 -100.2   -6.7  145.7   -4.8   211.3
 97 JAN 16  16:22:00:00     311    8.6      18   -2.8      222.4 -100.3   -6.6  145.7   -4.8   210.8
 97 JAN 16  16:23:00:00     308    7.5      18   -1.4      222.3 -100.3   -6.6  145.7   -4.8   210.2
 97 JAN 17  17:00:00:00     308    8.0      18   -2.0      222.2 -100.3   -6.6  145.7   -4.8   209.7
 97 JAN 17  17:01:00:00     306    7.6      19   -1.7      222.2 -100.4   -6.6  145.8   -4.8   209.1
 97 JAN 17  17:02:00:00     305    7.4      18   -1.9      222.1 -100.4   -6.5  145.8   -4.8   208.6
 97 JAN 17  17:03:00:00     304    8.4      19   -1.4      222.1 -100.4   -6.5  145.8   -4.8   208.0
 97 JAN 17  17:04:00:00     302   10.1      19   -1.7      222.0 -100.4   -6.5  145.8   -4.8   207.5
 97 JAN 17  17:05:00:00     305    9.6      19   -1.6      222.0 -100.5   -6.4  145.8   -4.8   206.9
 97 JAN 17  17:06:00:00     309   10.1      18   -1.6      221.9 -100.5   -6.4  145.8   -4.8   206.4
 97 JAN 17  17:07:00:00     310    9.1      18   -1.3      221.8 -100.5   -6.4  145.8   -4.8   205.8
 97 JAN 17  17:08:00:00     310   10.6      18   -2.2      221.8 -100.5   -6.4  145.8   -4.8   205.3
 97 JAN 17  17:09:00:00     308   12.3      18   -2.2      221.7 -100.6   -6.3  145.8   -4.8   204.7
 97 JAN 17  17:10:00:00     306   12.0      18   -1.1      221.7 -100.6   -6.3  145.8   -4.9   204.2
 97 JAN 17  17:11:00:00     310   12.1      18   -2.5      221.6 -100.6   -6.3  145.8   -4.9   203.6
 97 JAN 17  17:12:00:00     306   12.6      18   -1.5      221.5 -100.6   -6.3  145.8   -4.9   203.1
 97 JAN 17  17:13:00:00     302   13.8      19   -1.5      221.5 -100.7   -6.2  145.8   -4.9   202.5
 97 JAN 17  17:14:00:00     298   14.8      19   -1.7      221.4 -100.7   -6.2  145.8   -4.9   202.0
 97 JAN 17  17:15:00:00     299   14.8      19   -1.3      221.4 -100.7   -6.2  145.8   -4.9   201.4
 97 JAN 17  17:16:00:00     303   15.1      18   -2.7      221.3 -100.7   -6.2  145.8   -4.9   200.9
 97 JAN 17  17:17:00:00     304   16.9      18   -2.7      221.2 -100.8   -6.1  145.8   -4.9   200.3
 97 JAN 17  17:18:00:00     302   16.2      19   -2.0      221.2 -100.8   -6.1  145.8   -4.9   199.8
 97 JAN 17  17:19:00:00     302   16.4      19   -1.5      221.1 -100.8   -6.1  145.8   -4.9   199.2
 97 JAN 17  17:20:00:00     311   16.6      18   -2.4      221.1 -100.8   -6.0  145.8   -4.9   198.7
 97 JAN 17  17:21:00:00     322   13.5      20   -2.2      221.0 -100.9   -6.0  145.8   -4.9   198.1
 97 JAN 17  17:22:00:00     318   11.8      19   -1.3      221.0 -100.9   -6.0  145.8   -4.9   197.6
 97 JAN 17  17:23:00:00     330   14.3      21   -0.8      220.9 -100.9   -6.0  145.8   -4.9   197.0
 97 JAN 18  18:00:00:00     343   14.1      26    1.9      220.8 -100.9   -5.9  145.8   -4.9   196.5
 97 JAN 18  18:01:00:00     340   13.7      26    1.0      220.8 -101.0   -5.9  145.8   -4.9   195.9
 97 JAN 18  18:02:00:00     337   12.8      25   -0.1      220.7 -101.0   -5.9  145.8   -4.9   195.4
 97 JAN 18  18:03:00:00     342   12.7      26    1.3      220.7 -101.0   -5.9  145.8   -4.9   194.8
 97 JAN 18  18:04:00:00     346   12.5      27    1.0      220.6 -101.0   -5.8  145.8   -4.9   194.3
 97 JAN 18  18:05:00:00     346   12.0      27    0.2      220.5 -101.0   -5.8  145.8   -4.9   193.7
 97 JAN 18  18:06:00:00     345   12.0      27   -0.4      220.5 -101.1   -5.8  145.8   -4.9   193.2
 97 JAN 18  18:07:00:00     346   11.3      26   -0.8      220.4 -101.1   -5.8  145.8   -4.9   192.6
 97 JAN 18  18:08:00:00     343   10.3      25   -0.4      220.4 -101.1   -5.7  145.8   -4.9   192.1
 97 JAN 18  18:09:00:00     336   10.4      24    0.9      220.3 -101.1   -5.7  145.8   -4.9   191.5
 97 JAN 18  18:10:00:00     342   12.0      27    1.3      220.3 -101.2   -5.7  145.8   -4.9   191.0
 97 JAN 18  18:11:00:00     342   12.8      27    1.3      220.2 -101.2   -5.6  145.8   -5.0   190.4
 97 JAN 18  18:12:00:00     340   13.6      27    1.6      220.1 -101.2   -5.6  145.8   -5.0   189.9
 97 JAN 18  18:13:00:00     344   11.0      27    0.5      220.1 -101.2   -5.6  145.8   -5.0   189.3
 97 JAN 18  18:14:00:00     338   12.3      26    1.0      220.0 -101.2   -5.6  145.8   -5.0   188.8
 97 JAN 18  18:15:00:00     341   11.7      26    0.9      220.0 -101.3   -5.5  145.8   -5.0   188.2
 97 JAN 18  18:16:00:00     343   10.2      24    0.6      219.9 -101.3   -5.5  145.8   -5.0   187.7
 97 JAN 18  18:17:00:00     330   10.3      22    1.5      219.9 -101.3   -5.5  145.8   -5.0   187.1
 97 JAN 18  18:18:00:00     331   15.7      23    1.8      219.8 -101.3   -5.5  145.8   -5.0   186.6
 97 JAN 18  18:19:00:00     334   15.6      24    1.1      219.7 -101.3   -5.4  145.8   -5.0   186.0
 97 JAN 18  18:20:00:00     330   13.8      23    1.1      219.7 -101.4   -5.4  145.8   -5.0   185.5
 97 JAN 18  18:21:00:00     334   14.8      24    2.1      219.6 -101.4   -5.4  145.8   -5.0   184.9
 97 JAN 18  18:22:00:00     335   13.7      25    2.0      219.6 -101.4   -5.3  145.8   -5.0   184.4
 97 JAN 18  18:23:00:00     338   12.3      27    1.8      219.5 -101.4   -5.3  145.8   -5.0   183.8
 97 JAN 19  19:00:00:00     341   11.2      28    0.7      219.5 -101.4   -5.3  145.8   -5.0   183.3
 97 JAN 19  19:01:00:00     337    9.2      27    0.6      219.4 -101.5   -5.3  145.8   -5.0   182.7
 97 JAN 19  19:02:00:00     334    9.7      26    0.1      219.3 -101.5   -5.2  145.8   -5.0   182.2
 97 JAN 19  19:03:00:00     337   10.5      28    0.4      219.3 -101.5   -5.2  145.8   -5.0   181.6
 97 JAN 19  19:04:00:00     339   10.6      28    0.0      219.2 -101.5   -5.2  145.8   -5.0   181.1
 97 JAN 19  19:05:00:00     347   10.5      29   -1.1      219.2 -101.5   -5.2  145.8   -5.0   180.5
 97 JAN 19  19:06:00:00     343   12.3      26   -2.3      219.1 -101.5   -5.1  145.8   -5.0   180.0
 97 JAN 19  19:07:00:00     334   15.1      24   -3.4      219.1 -101.6   -5.1  145.8   -5.0   179.4
 97 JAN 19  19:08:00:00     332   15.8      23   -3.7      219.0 -101.6   -5.1  145.8   -5.0   178.9
 97 JAN 19  19:09:00:00     337   12.1      24   -3.1      219.0 -101.6   -5.0  145.8   -5.0   178.3
 97 JAN 19  19:10:00:00     337    9.2      24   -1.0      218.9 -101.6   -5.0  145.8   -5.0   177.8
 97 JAN 19  19:11:00:00     338    8.6      24    0.3      218.8 -101.6   -5.0  145.8   -5.0   177.2
 97 JAN 19  19:12:00:00     344    7.1      26   -0.4      218.8 -101.6   -5.0  145.8   -5.0   176.7
 97 JAN 19  19:13:00:00     337    8.1      26    0.9      218.7 -101.7   -4.9  145.8   -5.0   176.1
 97 JAN 19  19:14:00:00     330    8.7      24    0.2      218.7 -101.7   -4.9  145.8   -5.1   175.6
 97 JAN 19  19:15:00:00     344    6.6      26   -0.5      218.6 -101.7   -4.9  145.8   -5.1   175.0
 97 JAN 19  19:16:00:00     328    8.9      23   -0.2      218.6 -101.7   -4.9  145.8   -5.1   174.5
 97 JAN 19  19:17:00:00     325   10.0      22    0.9      218.5 -101.7   -4.8  145.8   -5.1   173.9
 97 JAN 19  19:18:00:00     327   10.3      23    0.4      218.4 -101.7   -4.8  145.8   -5.1   173.4
 97 JAN 19  19:19:00:00     325   10.6      22    1.1      218.4 -101.8   -4.8  145.8   -5.1   172.8
 97 JAN 19  19:20:00:00     323   10.4      22    0.9      218.3 -101.8   -4.7  145.8   -5.1   172.3
 97 JAN 19  19:21:00:00     326   12.7      22    1.8      218.3 -101.8   -4.7  145.8   -5.1   171.7
 97 JAN 19  19:22:00:00     335   13.6      23    2.6      218.2 -101.8   -4.7  145.8   -5.1   171.2
 97 JAN 19  19:23:00:00     333   16.9      23    3.5      218.2 -101.8   -4.7  145.8   -5.1   170.6
 97 JAN 20  20:00:00:00     330   13.5      22    2.9      218.1 -101.8   -4.6  145.8   -5.1   170.1
 97 JAN 20  20:01:00:00     323   13.1      21    3.5      218.1 -101.8   -4.6  145.8   -5.1   169.5
 97 JAN 20  20:02:00:00     325   16.0      21    4.2      218.0 -101.9   -4.6  145.8   -5.1   169.0
 97 JAN 20  20:03:00:00     331   20.0      22    5.0      217.9 -101.9   -4.6  145.8   -5.1   168.4
 97 JAN 20  20:04:00:00     340   16.1      26    3.8      217.9 -101.9   -4.5  145.8   -5.1   167.9
 97 JAN 20  20:05:00:00     344   14.5      26    2.0      217.8 -101.9   -4.5  145.8   -5.1   167.3
 97 JAN 20  20:06:00:00     340   14.9      26    2.2      217.8 -101.9   -4.5  145.8   -5.1   166.8
 97 JAN 20  20:07:00:00     331   14.3      23    3.2      217.7 -101.9   -4.4  145.8   -5.1   166.2
 97 JAN 20  20:08:00:00     337   10.5      25    0.2      217.7 -101.9   -4.4  145.8   -5.1   165.7
 97 JAN 20  20:09:00:00     326   13.6      22    3.0      217.6 -102.0   -4.4  145.8   -5.1   165.1
 97 JAN 20  20:10:00:00     327   13.9      23    3.8      217.6 -102.0   -4.4  145.8   -5.1   164.6
 97 JAN 20  20:11:00:00     341   13.3      26    2.9      217.5 -102.0   -4.3  145.8   -5.1   164.0
 97 JAN 20  20:12:00:00     347    9.6      28    0.8      217.5 -102.0   -4.3  145.8   -5.1   163.5
 97 JAN 20  20:13:00:00     347   10.5      28    0.7      217.4 -102.0   -4.3  145.8   -5.1   162.9
 97 JAN 20  20:14:00:00     357   13.4      30    1.6      217.3 -102.0   -4.2  145.8   -5.1   162.4
 97 JAN 20  20:15:00:00     361   16.4      30    2.2      217.3 -102.0   -4.2  145.8   -5.1   161.8
 97 JAN 20  20:16:00:00     367   17.3      33    3.3      217.2 -102.0   -4.2  145.8   -5.2   161.3
 97 JAN 20  20:17:00:00     363   14.6      26    0.8      217.2 -102.0   -4.2  145.8   -5.2   160.7
 97 JAN 20  20:18:00:00     360   12.6      26   -0.9      217.1 -102.1   -4.1  145.8   -5.2   160.2
 97 JAN 20  20:19:00:00     345   13.5      22   -2.4      217.1 -102.1   -4.1  145.8   -5.2   159.6
 97 JAN 20  20:20:00:00     341   14.0      23   -3.2      217.0 -102.1   -4.1  145.8   -5.2   159.1
 97 JAN 20  20:21:00:00     334   12.4      23   -2.1      217.0 -102.1   -4.1  145.8   -5.2   158.5
 97 JAN 20  20:22:00:00     343   14.8      23   -3.1      216.9 -102.1   -4.0  145.8   -5.2   158.0
 97 JAN 20  20:23:00:00     353   13.1      26   -2.5      216.9 -102.1   -4.0  145.8   -5.2   157.4
 97 JAN 21  21:00:00:00     354    9.3      28   -1.6      216.8 -102.1   -4.0  145.8   -5.2   156.9
 97 JAN 21  21:01:00:00     352    9.6      28   -1.1      216.8 -102.1   -3.9  145.8   -5.2   156.3
 97 JAN 21  21:02:00:00     358   10.4      30   -1.4      216.7 -102.1   -3.9  145.8   -5.2   155.8
 97 JAN 21  21:03:00:00     359    9.8      31   -1.4      216.6 -102.1   -3.9  145.8   -5.2   155.2
 97 JAN 21  21:04:00:00     358    9.4      30   -0.3      216.6 -102.2   -3.9  145.8   -5.2   154.7
 97 JAN 21  21:05:00:00     361   10.6      31   -0.1      216.5 -102.2   -3.8  145.8   -5.2   154.1
 97 JAN 21  21:06:00:00     374   10.4      35   -1.4      216.5 -102.2   -3.8  145.8   -5.2   153.6
 97 JAN 21  21:07:00:00     368   11.6      35    0.2      216.4 -102.2   -3.8  145.8   -5.2   153.0
 97 JAN 21  21:08:00:00     373   12.0      37    0.8      216.4 -102.2   -3.7  145.8   -5.2   152.5
 97 JAN 21  21:09:00:00     371   11.4      31    0.6      216.3 -102.2   -3.7  145.8   -5.2   151.9
 97 JAN 21  21:10:00:00     386   11.3      36    0.0      216.3 -102.2   -3.7  145.8   -5.2   151.4
 97 JAN 21  21:11:00:00     388   10.7      36   -1.7      216.2 -102.2   -3.7  145.8   -5.2   150.8
 97 JAN 21  21:12:00:00     399   10.7      31   -2.3      216.2 -102.2   -3.6  145.8   -5.2   150.3
 97 JAN 21  21:13:00:00     409   12.4      32   -3.5      216.1 -102.2   -3.6  145.8   -5.2   149.7
 97 JAN 21  21:14:00:00     396   11.3      29   -2.2      216.1 -102.2   -3.6  145.8   -5.2   149.2
 97 JAN 21  21:15:00:00     381    9.5      24   -0.8      216.0 -102.2   -3.6  145.8   -5.2   148.6
 97 JAN 21  21:16:00:00     384   10.5      29   -0.9      216.0 -102.2   -3.5  145.8   -5.2   148.1
 97 JAN 21  21:17:00:00     373   12.1      33   -0.8      215.9 -102.3   -3.5  145.8   -5.2   147.5
 97 JAN 21  21:18:00:00     371   12.4      32    0.4      215.9 -102.3   -3.5  145.8   -5.2   147.0
 97 JAN 21  21:19:00:00     370   10.6      34    0.4      215.8 -102.3   -3.4  145.8   -5.3   146.4
 97 JAN 21  21:20:00:00     389    9.6      35   -1.3      215.8 -102.3   -3.4  145.8   -5.3   145.9
 97 JAN 21  21:21:00:00     398    8.7      32   -3.3      215.7 -102.3   -3.4  145.8   -5.3   145.3
 97 JAN 21  21:22:00:00     412    7.8      38   -2.3      215.7 -102.3   -3.4  145.8   -5.3   144.8
 97 JAN 21  21:23:00:00     402    7.4      34   -1.8      215.6 -102.3   -3.3  145.8   -5.3   144.2
 97 JAN 22  22:00:00:00     417    7.5      38   -1.3      215.6 -102.3   -3.3  145.9   -5.3   143.7
 97 JAN 22  22:01:00:00     412    7.0      36   -0.6      215.5 -102.3   -3.3  145.9   -5.3   143.1
 97 JAN 22  22:02:00:00     421    7.0      37   -1.1      215.4 -102.3   -3.2  145.9   -5.3   142.6
 97 JAN 22  22:03:00:00     408    6.9      35   -1.5      215.4 -102.3   -3.2  145.9   -5.3   142.0
 97 JAN 22  22:04:00:00     403    7.1      33   -1.3      215.3 -102.3   -3.2  145.9   -5.3   141.5
 97 JAN 22  22:05:00:00     403    7.2      32   -1.8      215.3 -102.3   -3.2  145.9   -5.3   140.9
 97 JAN 22  22:06:00:00     400    7.4      30   -1.7      215.2 -102.3   -3.1  145.9   -5.3   140.4
 97 JAN 22  22:07:00:00     395    6.9      30   -1.5      215.2 -102.3   -3.1  145.9   -5.3   139.8
 97 JAN 22  22:08:00:00     391    6.6      29   -1.6      215.1 -102.3   -3.1  145.9   -5.3   139.3
 97 JAN 22  22:09:00:00     392    7.0      28   -2.3      215.1 -102.3   -3.0  145.9   -5.3   138.7
 97 JAN 22  22:10:00:00     391    6.6      28   -2.9      215.0 -102.3   -3.0  145.9   -5.3   138.2
 97 JAN 22  22:11:00:00     390    6.9      28   -3.3      215.0 -102.3   -3.0  145.9   -5.3   137.6
 97 JAN 22  22:12:00:00     385    7.1      28   -3.1      214.9 -102.3   -3.0  145.9   -5.3   137.1
 97 JAN 22  22:13:00:00     384    6.7      27   -3.1      214.9 -102.3   -2.9  145.9   -5.3   136.5
 97 JAN 22  22:14:00:00     383    7.3      27   -3.3      214.8 -102.3   -2.9  145.9   -5.3   136.0
 97 JAN 22  22:15:00:00     377    7.6      26   -2.6      214.8 -102.3   -2.9  145.9   -5.3   135.4
 97 JAN 22  22:16:00:00     373    7.7      26   -3.1      214.7 -102.3   -2.8  145.9   -5.3   134.9
 97 JAN 22  22:17:00:00     354    8.0      27   -2.7      214.7 -102.3   -2.8  145.9   -5.3   134.3
 97 JAN 22  22:18:00:00     352    8.0      28   -2.8      214.6 -102.3   -2.8  145.9   -5.3   133.8
 97 JAN 22  22:19:00:00     352    9.1      28   -2.9      214.6 -102.3   -2.8  145.9   -5.3   133.2
 97 JAN 22  22:20:00:00     350    9.7      28   -2.7      214.5 -102.3   -2.7  145.9   -5.3   132.7
 97 JAN 22  22:21:00:00     346   12.1      27   -2.3      214.5 -102.3   -2.7  145.9   -5.3   132.1
 97 JAN 22  22:22:00:00     356    8.1      29   -1.7      214.4 -102.3   -2.7  145.9   -5.3   131.6
 97 JAN 22  22:23:00:00     361    6.7      29   -1.9      214.4 -102.3   -2.6  145.9   -5.4   131.0
 97 JAN 23  23:00:00:00     360    7.8      29   -2.2      214.3 -102.3   -2.6  145.9   -5.4   130.5
 97 JAN 23  23:01:00:00     352    9.1      29   -2.5      214.3 -102.3   -2.6  145.9   -5.4   129.9
 97 JAN 23  23:02:00:00     368    8.0      25   -2.4      214.2 -102.3   -2.6  145.9   -5.4   129.4
 97 JAN 23  23:03:00:00     370    7.4      22   -3.2      214.2 -102.3   -2.5  145.9   -5.4   128.8
 97 JAN 23  23:04:00:00     372    8.2      23   -3.7      214.1 -102.3   -2.5  145.9   -5.4   128.3
 97 JAN 23  23:05:00:00     366    7.7      22   -3.3      214.1 -102.3   -2.5  145.9   -5.4   127.7
 97 JAN 23  23:06:00:00     355    8.2      22   -3.5      214.0 -102.3   -2.4  145.9   -5.4   127.2
 97 JAN 23  23:07:00:00     344   12.6      24   -4.0      214.0 -102.3   -2.4  145.9   -5.4   126.6
 97 JAN 23  23:08:00:00     335   14.1      23   -4.2      214.0 -102.3   -2.4  145.9   -5.4   126.1
 97 JAN 23  23:09:00:00     331   10.8      21   -3.7      213.9 -102.3   -2.4  145.9   -5.4   125.5
 97 JAN 23  23:10:00:00     333    9.6      20   -3.7      213.9 -102.3   -2.3  145.9   -5.4   125.0
 97 JAN 23  23:11:00:00     327   11.4      22   -3.5      213.8 -102.3   -2.3  145.9   -5.4   124.4
 97 JAN 23  23:12:00:00     328   13.0      21   -3.8      213.8 -102.3   -2.3  145.9   -5.4   123.9
 97 JAN 23  23:13:00:00     330   14.7      22   -4.3      213.7 -102.3   -2.2  145.9   -5.4   123.3
 97 JAN 23  23:14:00:00     319    9.9      19   -3.5      213.7 -102.3   -2.2  145.9   -5.4   122.8
 97 JAN 23  23:15:00:00     319    9.1      19   -3.5      213.6 -102.3   -2.2  145.9   -5.4   122.2
 97 JAN 23  23:16:00:00     315    9.3      19   -3.4      213.6 -102.3   -2.2  145.9   -5.4   121.7
 97 JAN 23  23:17:00:00     321   10.3      20   -3.4      213.5 -102.3   -2.1  145.9   -5.4   121.1
 97 JAN 23  23:18:00:00     320   11.3      20   -3.4      213.5 -102.3   -2.1  145.9   -5.4   120.6
 97 JAN 23  23:19:00:00     316    9.9      19   -2.7      213.4 -102.3   -2.1  145.9   -5.4   120.0
 97 JAN 23  23:20:00:00     327    8.6      22   -0.9      213.4 -102.3   -2.0  145.9   -5.4   119.5
 97 JAN 23  23:21:00:00     322   11.1      22    0.6      213.3 -102.3   -2.0  145.9   -5.4   118.9
 97 JAN 23  23:22:00:00     312   11.7      20    1.1      213.3 -102.3   -2.0  145.9   -5.4   118.4
 97 JAN 23  23:23:00:00     313   13.6      20    1.7      213.2 -102.3   -2.0  145.9   -5.4   117.8
 97 JAN 24  24:00:00:00     321   15.6      20    2.6      213.2 -102.3   -1.9  145.9   -5.4   117.3
 97 JAN 24  24:01:00:00     333   20.1      23    3.2      213.1 -102.3   -1.9  145.9   -5.4   116.7
 97 JAN 24  24:02:00:00     339   16.2      25    2.2      213.1 -102.3   -1.9  145.9   -5.4   116.2
 97 JAN 24  24:03:00:00     348   16.0      27    2.6      213.0 -102.3   -1.8  145.9   -5.4   115.6
 97 JAN 24  24:04:00:00     354   14.1      28    1.9      213.0 -102.2   -1.8  145.9   -5.5   115.1
 97 JAN 24  24:05:00:00     353   14.5      28    1.7      213.0 -102.2   -1.8  145.9   -5.5   114.5
 97 JAN 24  24:06:00:00     348   14.6      27    1.9      212.9 -102.2   -1.8  145.9   -5.5   114.0
 97 JAN 24  24:07:00:00     354   15.4      30   -1.3      212.9 -102.2   -1.7  145.9   -5.5   113.4
 97 JAN 24  24:08:00:00     348   13.6      27    0.4      212.8 -102.2   -1.7  145.9   -5.5   112.9
 97 JAN 24  24:09:00:00     341   12.5      25    1.6      212.8 -102.2   -1.7  145.9   -5.5   112.3
 97 JAN 24  24:10:00:00     332   10.7      24    0.3      212.7 -102.2   -1.6  145.9   -5.5   111.8
 97 JAN 24  24:11:00:00     328   10.5      24    0.6      212.7 -102.2   -1.6  145.9   -5.5   111.2
 97 JAN 24  24:12:00:00     326   10.8      23    0.8      212.6 -102.2   -1.6  145.9   -5.5   110.7
 97 JAN 24  24:13:00:00     326   11.0      23    0.9      212.6 -102.2   -1.6  145.9   -5.5   110.1
 97 JAN 24  24:14:00:00     326   10.5      23    0.5      212.5 -102.2   -1.5  145.9   -5.5   109.6
 97 JAN 24  24:15:00:00     325   10.5      23    0.0      212.5 -102.2   -1.5  145.9   -5.5   109.0
 97 JAN 24  24:16:00:00     324   10.4      22   -0.5      212.4 -102.2   -1.5  145.9   -5.5   108.5
 97 JAN 24  24:17:00:00     325   11.0      23    0.9      212.4 -102.1   -1.4  145.9   -5.5   107.9
 97 JAN 24  24:18:00:00     329    9.1      23    0.3      212.4 -102.1   -1.4  145.9   -5.5   107.4
 97 JAN 24  24:19:00:00     339   11.5      23   -2.0      212.3 -102.1   -1.4  145.9   -5.5   106.8
 97 JAN 24  24:20:00:00     336    9.2      21   -1.2      212.3 -102.1   -1.4  145.9   -5.5   106.3
 97 JAN 24  24:21:00:00     331    9.7      21   -1.7      212.2 -102.1   -1.3  145.9   -5.5   105.7
 97 JAN 24  24:22:00:00     330    9.1      22   -1.9      212.2 -102.1   -1.3  145.9   -5.5   105.2
 97 JAN 24  24:23:00:00     337    7.7      24   -1.1      212.1 -102.1   -1.3  145.9   -5.5   104.6
 97 JAN 25  25:00:00:00     333    7.5      23   -1.1      212.1 -102.1   -1.2  145.9   -5.5   104.1
 97 JAN 25  25:01:00:00     327    9.5      22   -1.3      212.0 -102.1   -1.2  145.9   -5.5   103.5
 97 JAN 25  25:02:00:00     329   11.3      23   -1.5      212.0 -102.0   -1.2  145.9   -5.5   103.0
 97 JAN 25  25:03:00:00     333   11.6      23   -2.3      212.0 -102.0   -1.2  145.9   -5.5   102.4
 97 JAN 25  25:04:00:00     331   11.2      23   -1.8      211.9 -102.0   -1.1  145.9   -5.5   101.9
 97 JAN 25  25:05:00:00     328   11.2      22   -2.9      211.9 -102.0   -1.1  145.9   -5.5   101.3
 97 JAN 25  25:06:00:00     324   11.4      21   -2.3      211.8 -102.0   -1.1  145.9   -5.5   100.8
 97 JAN 25  25:07:00:00     321   11.9      19   -3.1      211.8 -102.0   -1.0  145.9   -5.5   100.2
 97 JAN 25  25:08:00:00     319   11.1      19   -3.1      211.7 -102.0   -1.0  145.9   -5.5    99.7
 97 JAN 25  25:09:00:00     321   11.4      19   -3.3      211.7 -102.0   -1.0  145.9   -5.6    99.1
 97 JAN 25  25:10:00:00     327   11.5      20   -3.7      211.6 -101.9   -1.0  145.9   -5.6    98.6
 97 JAN 25  25:11:00:00     325   12.1      20   -3.5      211.6 -101.9   -0.9  145.9   -5.6    98.0
 97 JAN 25  25:12:00:00     323   11.2      21   -3.1      211.6 -101.9   -0.9  145.9   -5.6    97.5
 97 JAN 25  25:13:00:00     323   11.8      21   -2.9      211.5 -101.9   -0.9  145.9   -5.6    96.9
 97 JAN 25  25:14:00:00     322   12.9      21   -3.0      211.5 -101.9   -0.8  145.9   -5.6    96.4
 97 JAN 25  25:15:00:00     323   13.4      21   -3.6      211.4 -101.9   -0.8  145.9   -5.6    95.8
 97 JAN 25  25:16:00:00     322   13.5      21   -3.4      211.4 -101.9   -0.8  145.9   -5.6    95.3
 97 JAN 25  25:17:00:00     322   14.3      21   -3.2      211.3 -101.8   -0.8  145.9   -5.6    94.7
 97 JAN 25  25:18:00:00     323   16.9      20   -3.2      211.3 -101.8   -0.7  145.9   -5.6    94.2
 97 JAN 25  25:19:00:00     323   19.9      20   -3.3      211.3 -101.8   -0.7  145.9   -5.6    93.6
 97 JAN 25  25:20:00:00     321   21.2      20   -2.0      211.2 -101.8   -0.7  145.9   -5.6    93.1
 97 JAN 25  25:21:00:00     327   20.0      21   -0.5      211.2 -101.8   -0.6  145.9   -5.6    92.5
 97 JAN 25  25:22:00:00     328   26.3      21    2.3      211.1 -101.8   -0.6  145.9   -5.6    92.0
 97 JAN 25  25:23:00:00     328   27.6      21    2.8      211.1 -101.7   -0.6  145.9   -5.6    91.4
 97 JAN 26  26:00:00:00     339   22.0      24    2.0      211.0 -101.7   -0.6  145.9   -5.6    90.9
 97 JAN 26  26:01:00:00     352   24.8      26    2.7      211.0 -101.7   -0.5  145.9   -5.6    90.3
 97 JAN 26  26:02:00:00     351   26.5      26    3.7      211.0 -101.7   -0.5  145.9   -5.6    89.8
 97 JAN 26  26:03:00:00     353   26.6      28    4.4      210.9 -101.7   -0.5  145.9   -5.6    89.2
 97 JAN 26  26:04:00:00     350   24.6      27    4.3      210.9 -101.7   -0.4  145.9   -5.6    88.7
 97 JAN 26  26:05:00:00     345   19.2      26    3.1      210.8 -101.6   -0.4  145.9   -5.6    88.1
 97 JAN 26  26:06:00:00     341   16.4      25    1.5      210.8 -101.6   -0.4  145.9   -5.6    87.6
 97 JAN 26  26:07:00:00     351   18.6      28    1.6      210.7 -101.6   -0.3  145.9   -5.6    87.0
 97 JAN 26  26:08:00:00     367   24.3      35    3.2      210.7 -101.6   -0.3  145.9   -5.6    86.5
 97 JAN 26  26:09:00:00     401   22.7      42    1.1      210.7 -101.6   -0.3  146.0   -5.6    85.9
 97 JAN 26  26:10:00:00     445   17.0      47    0.6      210.6 -101.5   -0.3  146.0   -5.6    85.4
 97 JAN 26  26:11:00:00     455   14.7      50   -0.1      210.6 -101.5   -0.2  146.0   -5.6    84.8
 97 JAN 26  26:12:00:00     464   13.6      48   -1.0      210.5 -101.5   -0.2  146.0   -5.6    84.3
 97 JAN 26  26:13:00:00     476   14.3      50   -3.2      210.5 -101.5   -0.2  146.0   -5.6    83.7
 97 JAN 26  26:14:00:00     480   10.2      51   -1.8      210.5 -101.5   -0.1  146.0   -5.6    83.2
 97 JAN 26  26:15:00:00     521    9.4      68    0.1      210.4 -101.4   -0.1  146.0   -5.7    82.6
 97 JAN 26  26:16:00:00     537    7.9      65    0.4      210.4 -101.4   -0.1  146.0   -5.7    82.1
 97 JAN 26  26:17:00:00     552    7.0      58    0.2      210.3 -101.4   -0.1  146.0   -5.7    81.5
 97 JAN 26  26:18:00:00     552    6.4      61    0.8      210.3 -101.4    0.0  146.0   -5.7    81.0
 97 JAN 26  26:19:00:00     561    5.3      57   -0.6      210.2 -101.3    0.0  146.0   -5.7    80.4
 97 JAN 26  26:20:00:00     562    4.9      59   -0.2      210.2 -101.3    0.0  146.0   -5.7    79.9
 97 JAN 26  26:21:00:00     555    4.6      57   -0.6      210.2 -101.3    0.1  146.0   -5.7    79.3
 97 JAN 26  26:22:00:00     554    4.5      56    0.1      210.1 -101.3    0.1  146.0   -5.7    78.8
 97 JAN 26  26:23:00:00     550    4.4      55    0.9      210.1 -101.3    0.1  146.0   -5.7    78.2
 97 JAN 27  27:00:00:00     550    3.8      54    1.0      210.0 -101.2    0.1  146.0   -5.7    77.7
 97 JAN 27  27:01:00:00     556    3.4      53    1.3      210.0 -101.2    0.2  146.0   -5.7    77.1
 97 JAN 27  27:02:00:00     540    3.1      51    1.3      210.0 -101.2    0.2  146.0   -5.7    76.6
 97 JAN 27  27:03:00:00     547    3.0      51    1.1      209.9 -101.2    0.2  146.0   -5.7    76.0
 97 JAN 27  27:04:00:00     528    3.3      48    0.4      209.9 -101.1    0.3  146.0   -5.7    75.5
 97 JAN 27  27:05:00:00     533    4.1      47    1.1      209.8 -101.1    0.3  146.0   -5.7    74.9
 97 JAN 27  27:06:00:00     504    4.6      42    0.9      209.8 -101.1    0.3  146.0   -5.7    74.4
 97 JAN 27  27:07:00:00     483    4.9      36    0.0      209.8 -101.1    0.3  146.0   -5.7    73.8
 97 JAN 27  27:08:00:00     484    5.1      37   -0.6      209.7 -101.0    0.4  146.0   -5.7    73.3
 97 JAN 27  27:09:00:00     492    4.9      39    0.2      209.7 -101.0    0.4  146.0   -5.7    72.7
 97 JAN 27  27:10:00:00     484    5.5      38   -0.4      209.6 -101.0    0.4  146.0   -5.7    72.2
 97 JAN 27  27:11:00:00     470    6.6      36   -0.1      209.6 -101.0    0.5  146.0   -5.7    71.6
 97 JAN 27  27:12:00:00     477    6.1      37   -0.3      209.6 -100.9    0.5  146.0   -5.7    71.1
 97 JAN 27  27:13:00:00     484    6.7      37   -1.1      209.5 -100.9    0.5  146.0   -5.7    70.5
 97 JAN 27  27:14:00:00     484    7.2      38   -1.3      209.5 -100.9    0.5  146.0   -5.7    70.0
 97 JAN 27  27:15:00:00     488    7.2      39   -1.1      209.5 -100.9    0.6  146.0   -5.7    69.4
 97 JAN 27  27:16:00:00     495    7.2      43   -0.7      209.4 -100.8    0.6  146.0   -5.7    68.9
 97 JAN 27  27:17:00:00     479    7.6      38   -1.2      209.4 -100.8    0.6  146.0   -5.7    68.3
 97 JAN 27  27:18:00:00     481    6.5      39   -0.6      209.3 -100.8    0.7  146.0   -5.7    67.8
 97 JAN 27  27:19:00:00     495    5.7      41   -0.9      209.3 -100.7    0.7  146.0   -5.7    67.2
 97 JAN 27  27:20:00:00     519    6.5      49   -0.4      209.3 -100.7    0.7  146.0   -5.7    66.7
 97 JAN 27  27:21:00:00     489    7.3      43    0.0      209.2 -100.7    0.8  146.0   -5.7    66.1
 97 JAN 27  27:22:00:00     492    6.0      43   -0.2      209.2 -100.7    0.8  146.0   -5.8    65.6
 97 JAN 27  27:23:00:00     540    6.5      46   -1.5      209.1 -100.6    0.8  146.0   -5.8    65.0
 97 JAN 28  28:00:00:00     550    6.3      49   -1.8      209.1 -100.6    0.8  146.0   -5.8    64.5
 97 JAN 28  28:01:00:00     562    5.7      50   -1.7      209.1 -100.6    0.9  146.0   -5.8    63.9
 97 JAN 28  28:02:00:00     587    6.4      57   -2.3      209.0 -100.5    0.9  146.0   -5.8    63.4
 97 JAN 28  28:03:00:00     604    6.6      60   -2.1      209.0 -100.5    0.9  146.0   -5.8    62.8
 97 JAN 28  28:04:00:00     567    6.3      53   -2.0      209.0 -100.5    1.0  146.0   -5.8    62.3
 97 JAN 28  28:05:00:00     575    6.6      56   -1.5      208.9 -100.4    1.0  146.0   -5.8    61.7
 97 JAN 28  28:06:00:00     589    5.9      59   -2.0      208.9 -100.4    1.0  146.0   -5.8    61.2
 97 JAN 28  28:07:00:00     599    6.4      60   -0.9      208.8 -100.4    1.0  146.0   -5.8    60.6
 97 JAN 28  28:08:00:00     642    6.3      63    0.0      208.8 -100.4    1.1  146.0   -5.8    60.1
 97 JAN 28  28:09:00:00     659    3.6      63   -0.2      208.8 -100.3    1.1  146.0   -5.8    59.5
 97 JAN 28  28:10:00:00     645    4.3      59    2.0      208.7 -100.3    1.1  146.0   -5.8    59.0
 97 JAN 28  28:11:00:00     661    3.8      60   -0.3      208.7 -100.3    1.2  146.0   -5.8    58.4
 97 JAN 28  28:12:00:00     639    4.2      57    1.2      208.7 -100.2    1.2  146.0   -5.8    57.9
 97 JAN 28  28:13:00:00     656    3.7      59    0.3      208.6 -100.2    1.2  146.0   -5.8    57.3
 97 JAN 28  28:14:00:00     658    3.8      59    0.0      208.6 -100.2    1.2  146.0   -5.8    56.8
 97 JAN 28  28:15:00:00     714    3.2      64   -0.3      208.6 -100.1    1.3  146.0   -5.8    56.2
 97 JAN 28  28:16:00:00     642    3.6      56    0.8      208.5 -100.1    1.3  146.0   -5.8    55.7
 97 JAN 28  28:17:00:00     639    3.7      56    0.1      208.5 -100.1    1.3  146.0   -5.8    55.1
 97 JAN 28  28:18:00:00     673    3.1      60   -0.3      208.4 -100.0    1.4  146.0   -5.8    54.6
 97 JAN 28  28:19:00:00     625    3.8      54   -0.8      208.4 -100.0    1.4  146.0   -5.8    54.0
 97 JAN 28  28:20:00:00     615    3.5      52   -1.0      208.4 -100.0    1.4  146.0   -5.8    53.5
 97 JAN 28  28:21:00:00     592    3.6      46   -0.4      208.3  -99.9    1.4  146.0   -5.8    52.9
 97 JAN 28  28:22:00:00     600    3.7      48    0.8      208.3  -99.9    1.5  146.0   -5.8    52.4
 97 JAN 28  28:23:00:00     613    3.4      52    0.3      208.3  -99.8    1.5  146.0   -5.8    51.8
 97 JAN 29  29:00:00:00     607    2.9      53    0.4      208.2  -99.8    1.5  146.0   -5.8    51.3
 97 JAN 29  29:01:00:00     598    2.8      52    0.3      208.2  -99.8    1.6  146.0   -5.8    50.7
 97 JAN 29  29:02:00:00     605    2.6      52    0.3      208.2  -99.7    1.6  146.0   -5.8    50.2
 97 JAN 29  29:03:00:00     609    2.8      52    1.0      208.1  -99.7    1.6  146.0   -5.8    49.6
 97 JAN 29  29:04:00:00     600    2.6      52    0.6      208.1  -99.7    1.6  146.0   -5.8    49.1
 97 JAN 29  29:05:00:00     592    2.7      53   -0.1      208.0  -99.6    1.7  146.0   -5.8    48.5
 97 JAN 29  29:06:00:00     617    3.8      54   -0.1      208.0  -99.6    1.7  146.0   -5.9    48.0
 97 JAN 29  29:07:00:00     618    3.9      55   -0.7      208.0  -99.6    1.7  146.0   -5.9    47.4
 97 JAN 29  29:08:00:00     624    3.2      58   -0.9      207.9  -99.5    1.8  146.0   -5.9    46.9
 97 JAN 29  29:09:00:00     613    3.0      54    0.0      207.9  -99.5    1.8  146.0   -5.9    46.3
 97 JAN 29  29:10:00:00     582    2.8      49   -0.3      207.9  -99.4    1.8  146.0   -5.9    45.8
 97 JAN 29  29:11:00:00     566    2.5      48   -0.4      207.8  -99.4    1.9  146.0   -5.9    45.2
 97 JAN 29  29:12:00:00     559    3.1      46   -0.4      207.8  -99.4    1.9  146.0   -5.9    44.7
 97 JAN 29  29:13:00:00     553    3.7      48   -0.7      207.8  -99.3    1.9  146.0   -5.9    44.1
 97 JAN 29  29:14:00:00     538    3.6      49   -0.9      207.7  -99.3    1.9  146.0   -5.9    43.6
 97 JAN 29  29:15:00:00     526    3.8      48   -1.3      207.7  -99.2    2.0  146.0   -5.9    43.0
 97 JAN 29  29:16:00:00     519    4.1      47   -1.9      207.7  -99.2    2.0  146.0   -5.9    42.5
 97 JAN 29  29:17:00:00     523    4.7      47   -2.3      207.6  -99.2    2.0  146.0   -5.9    41.9
 97 JAN 29  29:18:00:00     517    5.1      46   -2.0      207.6  -99.1    2.1  146.0   -5.9    41.4
 97 JAN 29  29:19:00:00     506    5.0      43   -2.1      207.6  -99.1    2.1  146.0   -5.9    40.8
 97 JAN 29  29:20:00:00     532    3.6      49   -1.5      207.5  -99.0    2.1  146.0   -5.9    40.3
 97 JAN 29  29:21:00:00     549    3.7      48   -0.9      207.5  -99.0    2.1  146.0   -5.9    39.7
 97 JAN 29  29:22:00:00     556    3.8      49   -0.9      207.5  -99.0    2.2  146.0   -5.9    39.2
 97 JAN 29  29:23:00:00     541    4.1      48    0.2      207.4  -98.9    2.2  146.0   -5.9    38.6
 97 JAN 30  30:00:00:00     544    4.3      48   -0.4      207.4  -98.9    2.2  146.0   -5.9    38.1
 97 JAN 30  30:01:00:00     548    4.5      48   -0.9      207.4  -98.8    2.3  146.0   -5.9    37.5
 97 JAN 30  30:02:00:00     539    4.2      47    0.1      207.3  -98.8    2.3  146.0   -5.9    37.0
 97 JAN 30  30:03:00:00     542    4.5      47   -0.3      207.3  -98.7    2.3  146.0   -5.9    36.4
 97 JAN 30  30:04:00:00     535    3.8      46   -0.6      207.3  -98.7    2.3  146.0   -5.9    35.9
 97 JAN 30  30:05:00:00     542    4.1      47   -1.4      207.2  -98.6    2.4  146.0   -5.9    35.3
 97 JAN 30  30:06:00:00     514    5.0      45   -0.8      207.2  -98.6    2.4  146.0   -5.9    34.8
 97 JAN 30  30:07:00:00     515    4.2      46   -1.2      207.2  -98.6    2.4  146.0   -5.9    34.2
 97 JAN 30  30:08:00:00     522    4.3      46   -1.5      207.1  -98.5    2.5  146.0   -5.9    33.7
 97 JAN 30  30:09:00:00     532    3.5      49   -0.6      207.1  -98.5    2.5  146.1   -5.9    33.1
 97 JAN 30  30:10:00:00     556    3.5      49   -1.4      207.1  -98.4    2.5  146.1   -5.9    32.6
 97 JAN 30  30:11:00:00     556    3.4      49   -0.6      207.0  -98.4    2.5  146.1   -5.9    32.0
 97 JAN 30  30:12:00:00     554    3.5      48   -0.9      207.0  -98.3    2.6  146.1   -5.9    31.5
 97 JAN 30  30:13:00:00     560    4.0      50   -0.4      207.0  -98.3    2.6  146.1   -5.9    30.9
 97 JAN 30  30:14:00:00     543    4.6      50    0.5      206.9  -98.2    2.6  146.1   -5.9    30.4
 97 JAN 30  30:15:00:00     562    4.0      47   -1.5      206.9  -98.2    2.7  146.1   -6.0    29.8
 97 JAN 30  30:16:00:00     577    3.9      47   -1.3      206.9  -98.1    2.7  146.1   -6.0    29.3
 97 JAN 30  30:17:00:00     568    3.8      46   -1.1      206.8  -98.1    2.7  146.1   -6.0    28.7
 97 JAN 30  30:18:00:00     555    3.5      49   -0.1      206.8  -98.1    2.7  146.1   -6.0    28.2
 97 JAN 30  30:19:00:00     544    3.7      49   -0.6      206.8  -98.0    2.8  146.1   -6.0    27.6
 97 JAN 30  30:20:00:00     567    3.5      47   -1.0      206.7  -98.0    2.8  146.1   -6.0    27.1
 97 JAN 30  30:21:00:00     576    3.5      48   -0.8      206.7  -97.9    2.8  146.1   -6.0    26.5
 97 JAN 30  30:22:00:00     564    3.8      53   -0.4      206.7  -97.9    2.9  146.1   -6.0    26.0
 97 JAN 30  30:23:00:00     551    4.2      51   -0.2      206.6  -97.8    2.9  146.1   -6.0    25.4
 97 JAN 31  31:00:00:00     562    4.0      49    0.2      206.6  -97.8    2.9  146.1   -6.0    24.9
 97 JAN 31  31:01:00:00     569    3.6      49   -0.8      206.6  -97.7    2.9  146.1   -6.0    24.3
 97 JAN 31  31:02:00:00     567    3.5      49   -0.9      206.5  -97.7    3.0  146.1   -6.0    23.8
 97 JAN 31  31:03:00:00     560    3.5      49   -1.2      206.5  -97.6    3.0  146.1   -6.0    23.2
 97 JAN 31  31:04:00:00     540    3.2      48   -0.8      206.5  -97.6    3.0  146.1   -6.0    22.7
 97 JAN 31  31:05:00:00     514    3.5      46   -0.3      206.4  -97.5    3.1  146.1   -6.0    22.1
 97 JAN 31  31:06:00:00     504    3.6      43   -0.3      206.4  -97.5    3.1  146.1   -6.0    21.6
 97 JAN 31  31:07:00:00     508    3.8      44   -0.6      206.4  -97.4    3.1  146.1   -6.0    21.0
 97 JAN 31  31:08:00:00     509    3.4      44   -0.8      206.3  -97.4    3.1  146.1   -6.0    20.5
 97 JAN 31  31:09:00:00     504    3.6      42   -0.8      206.3  -97.3    3.2  146.1   -6.0    19.9
 97 JAN 31  31:10:00:00     511    3.9      43   -0.8      206.3  -97.3    3.2  146.1   -6.0    19.4
 97 JAN 31  31:11:00:00     500    4.1      42   -0.4      206.3  -97.2    3.2  146.1   -6.0    18.8
 97 JAN 31  31:12:00:00     513    3.6      45   -0.6      206.2  -97.2    3.3  146.1   -6.0    18.3
 97 JAN 31  31:13:00:00     507    4.0      44   -0.8      206.2  -97.1    3.3  146.1   -6.0    17.7
 97 JAN 31  31:14:00:00     497    4.4      40   -1.2      206.2  -97.0    3.3  146.1   -6.0    17.2
 97 JAN 31  31:15:00:00     483    4.2      36   -1.0      206.1  -97.0    3.3  146.1   -6.0    16.6
 97 JAN 31  31:16:00:00     483    3.9      37   -0.8      206.1  -96.9    3.4  146.1   -6.0    16.1
 97 JAN 31  31:17:00:00     483    4.0      37   -0.6      206.1  -96.9    3.4  146.1   -6.0    15.5
 97 JAN 31  31:18:00:00     493    4.0      39   -0.3      206.0  -96.8    3.4  146.1   -6.0    15.0
 97 JAN 31  31:19:00:00     486    4.0      38    0.4      206.0  -96.8    3.5  146.1   -6.0    14.4
 97 JAN 31  31:20:00:00     483    4.0      38    0.0      206.0  -96.7    3.5  146.1   -6.0    13.9
 97 JAN 31  31:21:00:00     478    3.5      36   -0.6      205.9  -96.7    3.5  146.1   -6.0    13.3
 97 JAN 31  31:22:00:00     478    3.3      37   -0.6      205.9  -96.6    3.5  146.1   -6.0    12.8
 97 JAN 31  31:23:00:00     478    3.3      36   -0.7      205.9  -96.6    3.6  146.1   -6.0    12.2
 97 FEB  1  32:00:00:00     475    3.3      36   -0.5      205.9  -96.5    3.6  146.1   -6.0    11.7
 97 FEB  1  32:01:00:00     464    3.7      37   -0.4      205.8  -96.4    3.6  146.1   -6.1    11.1
 97 FEB  1  32:02:00:00     466    3.7      38   -0.3      205.8  -96.4    3.7  146.1   -6.1    10.6
 97 FEB  1  32:03:00:00     457    4.1      38   -0.4      205.8  -96.3    3.7  146.1   -6.1    10.0
 97 FEB  1  32:04:00:00     448    5.4      39   -0.1      205.7  -96.3    3.7  146.1   -6.1     9.5
 97 FEB  1  32:05:00:00     444    5.7      39   -0.3      205.7  -96.2    3.7  146.1   -6.1     8.9
 97 FEB  1  32:06:00:00     432    5.7      39   -0.3      205.7  -96.2    3.8  146.1   -6.1     8.4
 97 FEB  1  32:07:00:00     435    6.3      40   -0.6      205.6  -96.1    3.8  146.1   -6.1     7.8
 97 FEB  1  32:08:00:00     442    5.5      38   -0.5      205.6  -96.0    3.8  146.1   -6.1     7.3
 97 FEB  1  32:09:00:00     434    5.2      37   -0.8      205.6  -96.0    3.9  146.1   -6.1     6.7
 97 FEB  1  32:10:00:00     427    5.3      37   -1.1      205.5  -95.9    3.9  146.1   -6.1     6.2
 97 FEB  1  32:11:00:00     433    5.8      37   -1.6      205.5  -95.9    3.9  146.1   -6.1     5.6
 97 FEB  1  32:12:00:00     438    7.4      36   -1.5      205.5  -95.8    3.9  146.1   -6.1     5.1
 97 FEB  1  32:13:00:00     447    7.3      37   -1.4      205.5  -95.8    4.0  146.1   -6.1     4.5
 97 FEB  1  32:14:00:00     455    6.5      41   -0.9      205.4  -95.7    4.0  146.1   -6.1     4.0
 97 FEB  1  32:15:00:00     452    6.4      42   -1.3      205.4  -95.6    4.0  146.1   -6.1     3.4
 97 FEB  1  32:16:00:00     445    6.2      41   -1.4      205.4  -95.6    4.1  146.1   -6.1     2.9
 97 FEB  1  32:17:00:00     433    5.6      40   -1.7      205.3  -95.5    4.1  146.1   -6.1     2.3
 97 FEB  1  32:18:00:00     438    5.0      41   -1.4      205.3  -95.5    4.1  146.1   -6.1     1.8
 97 FEB  1  32:19:00:00     442    4.3      43   -1.5      205.3  -95.4    4.1  146.1   -6.1     1.2
 97 FEB  1  32:20:00:00     450    4.2      45   -1.8      205.3  -95.3    4.2  146.1   -6.1     0.7
 97 FEB  1  32:21:00:00     462    3.8      45   -1.6      205.2  -95.3    4.2  146.1   -6.1     0.1
 97 FEB  1  32:22:00:00     439    5.1      41   -1.5      205.2  -95.2    4.2  146.1   -6.1   359.6